sensor_id;sensor_type;location;lat;lon;timestamp;P1;durP1;ratioP1;P2;durP2;ratioP2
47523;SDS011;33253;42.144;25.884;2023-03-01T00:01:21;6.60;;;3.95;;
47523;SDS011;33253;42.144;25.884;2023-03-01T00:03:50;6.85;;;4.18;;
47523;SDS011;33253;42.144;25.884;2023-03-01T00:06:15;5.47;;;3.50;;
47523;SDS011;33253;42.144;25.884;2023-03-01T00:08:41;6.85;;;4.05;;
47523;SDS011;33253;42.144;25.884;2023-03-01T00:11:10;4.93;;;3.55;;
47523;SDS011;33253;42.144;25.884;2023-03-01T00:13:38;5.22;;;3.30;;
47523;SDS011;33253;42.144;25.884;2023-03-01T00:16:05;4.95;;;3.40;;
47523;SDS011;33253;42.144;25.884;2023-03-01T00:18:31;6.38;;;3.53;;
47523;SDS011;33253;42.144;25.884;2023-03-01T00:20:57;5.57;;;3.90;;
47523;SDS011;33253;42.144;25.884;2023-03-01T00:23:23;6.45;;;3.97;;
47523;SDS011;33253;42.144;25.884;2023-03-01T00:25:49;5.60;;;3.70;;
47523;SDS011;33253;42.144;25.884;2023-03-01T00:28:15;5.55;;;3.80;;
47523;SDS011;33253;42.144;25.884;2023-03-01T00:30:41;6.00;;;3.88;;
47523;SDS011;33253;42.144;25.884;2023-03-01T00:33:07;5.30;;;3.60;;
47523;SDS011;33253;42.144;25.884;2023-03-01T00:35:33;5.65;;;3.33;;
47523;SDS011;33253;42.144;25.884;2023-03-01T00:37:59;5.82;;;3.92;;
47523;SDS011;33253;42.144;25.884;2023-03-01T00:40:25;6.82;;;4.65;;
47523;SDS011;33253;42.144;25.884;2023-03-01T00:42:55;5.72;;;4.32;;
47523;SDS011;33253;42.144;25.884;2023-03-01T00:45:20;5.65;;;4.35;;
47523;SDS011;33253;42.144;25.884;2023-03-01T00:47:46;7.13;;;3.88;;
47523;SDS011;33253;42.144;25.884;2023-03-01T00:50:12;7.95;;;4.38;;
47523;SDS011;33253;42.144;25.884;2023-03-01T00:52:38;6.18;;;3.97;;
47523;SDS011;33253;42.144;25.884;2023-03-01T00:55:04;8.85;;;5.00;;
47523;SDS011;33253;42.144;25.884;2023-03-01T00:57:30;6.25;;;4.03;;
47523;SDS011;33253;42.144;25.884;2023-03-01T00:59:55;5.30;;;3.80;;
47523;SDS011;33253;42.144;25.884;2023-03-01T01:02:21;5.63;;;3.80;;
47523;SDS011;33253;42.144;25.884;2023-03-01T01:04:47;8.52;;;4.43;;
47523;SDS011;33253;42.144;25.884;2023-03-01T01:07:13;16.05;;;5.75;;
47523;SDS011;33253;42.144;25.884;2023-03-01T01:09:39;28.73;;;10.02;;
47523;SDS011;33253;42.144;25.884;2023-03-01T01:12:05;32.08;;;8.98;;
47523;SDS011;33253;42.144;25.884;2023-03-01T01:14:31;25.17;;;7.30;;
47523;SDS011;33253;42.144;25.884;2023-03-01T01:16:57;18.52;;;6.75;;
47523;SDS011;33253;42.144;25.884;2023-03-01T01:19:23;18.30;;;6.60;;
47523;SDS011;33253;42.144;25.884;2023-03-01T01:21:49;9.20;;;4.68;;
47523;SDS011;33253;42.144;25.884;2023-03-01T01:24:15;29.15;;;10.02;;
47523;SDS011;33253;42.144;25.884;2023-03-01T01:26:41;47.55;;;12.77;;
47523;SDS011;33253;42.144;25.884;2023-03-01T01:29:08;60.83;;;14.77;;
47523;SDS011;33253;42.144;25.884;2023-03-01T01:31:35;62.30;;;14.93;;
47523;SDS011;33253;42.144;25.884;2023-03-01T01:34:02;55.67;;;14.15;;
47523;SDS011;33253;42.144;25.884;2023-03-01T01:36:29;68.05;;;15.57;;
47523;SDS011;33253;42.144;25.884;2023-03-01T01:38:55;50.65;;;13.77;;
47523;SDS011;33253;42.144;25.884;2023-03-01T01:41:21;44.28;;;11.35;;
47523;SDS011;33253;42.144;25.884;2023-03-01T01:43:48;46.20;;;12.77;;
47523;SDS011;33253;42.144;25.884;2023-03-01T01:46:35;36.90;;;10.38;;
47523;SDS011;33253;42.144;25.884;2023-03-01T01:49:07;32.80;;;11.00;;
47523;SDS011;33253;42.144;25.884;2023-03-01T01:51:51;43.63;;;11.32;;
47523;SDS011;33253;42.144;25.884;2023-03-01T01:54:27;71.97;;;17.83;;
47523;SDS011;33253;42.144;25.884;2023-03-01T01:57:02;40.60;;;13.98;;
47523;SDS011;33253;42.144;25.884;2023-03-01T01:59:32;44.90;;;13.88;;
47523;SDS011;33253;42.144;25.884;2023-03-01T02:01:59;30.60;;;13.38;;
47523;SDS011;33253;42.144;25.884;2023-03-01T02:06:57;30.15;;;10.18;;
47523;SDS011;33253;42.144;25.884;2023-03-01T02:09:27;56.67;;;16.83;;
47523;SDS011;33253;42.144;25.884;2023-03-01T02:11:55;53.28;;;17.00;;
47523;SDS011;33253;42.144;25.884;2023-03-01T02:14:21;24.58;;;10.07;;
47523;SDS011;33253;42.144;25.884;2023-03-01T02:16:46;26.90;;;11.02;;
47523;SDS011;33253;42.144;25.884;2023-03-01T02:19:15;55.45;;;19.15;;
47523;SDS011;33253;42.144;25.884;2023-03-01T02:22:03;71.35;;;20.30;;
47523;SDS011;33253;42.144;25.884;2023-03-01T02:30:14;59.78;;;21.65;;
47523;SDS011;33253;42.144;25.884;2023-03-01T02:32:40;43.92;;;17.92;;
47523;SDS011;33253;42.144;25.884;2023-03-01T02:35:10;39.95;;;16.20;;
47523;SDS011;33253;42.144;25.884;2023-03-01T02:37:39;60.08;;;19.00;;
47523;SDS011;33253;42.144;25.884;2023-03-01T02:40:07;49.70;;;16.88;;
47523;SDS011;33253;42.144;25.884;2023-03-01T02:42:45;50.25;;;15.20;;
47523;SDS011;33253;42.144;25.884;2023-03-01T02:45:16;52.30;;;16.55;;
47523;SDS011;33253;42.144;25.884;2023-03-01T02:47:41;40.88;;;11.43;;
47523;SDS011;33253;42.144;25.884;2023-03-01T02:50:33;33.95;;;10.68;;
47523;SDS011;33253;42.144;25.884;2023-03-01T02:52:57;48.00;;;13.52;;
47523;SDS011;33253;42.144;25.884;2023-03-01T02:55:32;51.25;;;16.00;;
47523;SDS011;33253;42.144;25.884;2023-03-01T02:57:57;33.50;;;9.52;;
47523;SDS011;33253;42.144;25.884;2023-03-01T03:00:28;55.47;;;16.88;;
47523;SDS011;33253;42.144;25.884;2023-03-01T03:02:58;24.13;;;9.23;;
47523;SDS011;33253;42.144;25.884;2023-03-01T03:05:25;28.05;;;9.57;;
47523;SDS011;33253;42.144;25.884;2023-03-01T03:07:53;30.80;;;10.55;;
47523;SDS011;33253;42.144;25.884;2023-03-01T03:10:30;29.60;;;7.80;;
47523;SDS011;33253;42.144;25.884;2023-03-01T03:13:02;20.38;;;8.05;;
47523;SDS011;33253;42.144;25.884;2023-03-01T03:15:32;19.67;;;6.15;;
47523;SDS011;33253;42.144;25.884;2023-03-01T03:18:02;13.07;;;5.88;;
47523;SDS011;33253;42.144;25.884;2023-03-01T03:20:29;8.05;;;4.88;;
47523;SDS011;33253;42.144;25.884;2023-03-01T03:22:55;21.58;;;8.68;;
47523;SDS011;33253;42.144;25.884;2023-03-01T03:25:23;40.22;;;11.13;;
47523;SDS011;33253;42.144;25.884;2023-03-01T03:27:49;12.07;;;6.25;;
47523;SDS011;33253;42.144;25.884;2023-03-01T03:30:22;12.68;;;4.78;;
47523;SDS011;33253;42.144;25.884;2023-03-01T03:32:49;10.48;;;4.82;;
47523;SDS011;33253;42.144;25.884;2023-03-01T03:35:18;9.35;;;4.30;;
47523;SDS011;33253;42.144;25.884;2023-03-01T03:37:44;12.77;;;5.15;;
47523;SDS011;33253;42.144;25.884;2023-03-01T03:40:35;14.00;;;5.13;;
47523;SDS011;33253;42.144;25.884;2023-03-01T03:43:03;10.50;;;5.35;;
47523;SDS011;33253;42.144;25.884;2023-03-01T03:45:30;6.80;;;3.85;;
47523;SDS011;33253;42.144;25.884;2023-03-01T03:47:58;14.55;;;6.18;;
47523;SDS011;33253;42.144;25.884;2023-03-01T03:50:24;6.30;;;4.00;;
47523;SDS011;33253;42.144;25.884;2023-03-01T03:52:49;5.53;;;3.60;;
47523;SDS011;33253;42.144;25.884;2023-03-01T03:55:15;6.40;;;3.90;;
47523;SDS011;33253;42.144;25.884;2023-03-01T03:57:44;5.63;;;3.80;;
47523;SDS011;33253;42.144;25.884;2023-03-01T04:00:19;4.80;;;3.00;;
47523;SDS011;33253;42.144;25.884;2023-03-01T04:02:46;5.20;;;2.95;;
47523;SDS011;33253;42.144;25.884;2023-03-01T04:05:13;4.75;;;3.22;;
47523;SDS011;33253;42.144;25.884;2023-03-01T04:07:41;5.65;;;3.28;;
47523;SDS011;33253;42.144;25.884;2023-03-01T04:10:11;4.68;;;3.20;;
47523;SDS011;33253;42.144;25.884;2023-03-01T04:12:38;5.65;;;3.03;;
47523;SDS011;33253;42.144;25.884;2023-03-01T04:15:05;7.40;;;3.70;;
47523;SDS011;33253;42.144;25.884;2023-03-01T04:17:41;7.18;;;3.88;;
47523;SDS011;33253;42.144;25.884;2023-03-01T04:20:15;6.90;;;4.38;;
47523;SDS011;33253;42.144;25.884;2023-03-01T04:22:43;5.60;;;4.05;;
47523;SDS011;33253;42.144;25.884;2023-03-01T04:25:12;6.22;;;3.92;;
47523;SDS011;33253;42.144;25.884;2023-03-01T04:27:39;6.05;;;3.78;;
47523;SDS011;33253;42.144;25.884;2023-03-01T04:30:06;7.47;;;3.80;;
47523;SDS011;33253;42.144;25.884;2023-03-01T04:32:32;6.47;;;4.43;;
47523;SDS011;33253;42.144;25.884;2023-03-01T04:34:57;9.15;;;4.40;;
47523;SDS011;33253;42.144;25.884;2023-03-01T04:37:23;7.88;;;3.95;;
47523;SDS011;33253;42.144;25.884;2023-03-01T04:39:49;6.78;;;4.80;;
47523;SDS011;33253;42.144;25.884;2023-03-01T04:42:14;6.57;;;4.15;;
47523;SDS011;33253;42.144;25.884;2023-03-01T04:44:40;7.20;;;4.57;;
47523;SDS011;33253;42.144;25.884;2023-03-01T04:47:05;6.85;;;4.32;;
47523;SDS011;33253;42.144;25.884;2023-03-01T04:49:31;13.98;;;6.43;;
47523;SDS011;33253;42.144;25.884;2023-03-01T04:51:57;11.80;;;5.28;;
47523;SDS011;33253;42.144;25.884;2023-03-01T04:54:29;15.35;;;5.38;;
47523;SDS011;33253;42.144;25.884;2023-03-01T04:56:55;7.25;;;4.15;;
47523;SDS011;33253;42.144;25.884;2023-03-01T04:59:21;6.60;;;4.32;;
47523;SDS011;33253;42.144;25.884;2023-03-01T05:01:49;6.50;;;4.03;;
47523;SDS011;33253;42.144;25.884;2023-03-01T05:04:23;6.28;;;4.43;;
47523;SDS011;33253;42.144;25.884;2023-03-01T05:06:49;6.40;;;4.13;;
47523;SDS011;33253;42.144;25.884;2023-03-01T05:09:15;7.90;;;4.50;;
47523;SDS011;33253;42.144;25.884;2023-03-01T05:11:41;8.70;;;4.60;;
47523;SDS011;33253;42.144;25.884;2023-03-01T05:14:06;9.10;;;4.40;;
47523;SDS011;33253;42.144;25.884;2023-03-01T05:16:33;10.07;;;5.80;;
47523;SDS011;33253;42.144;25.884;2023-03-01T05:18:59;10.50;;;5.50;;
47523;SDS011;33253;42.144;25.884;2023-03-01T05:21:24;11.98;;;6.25;;
47523;SDS011;33253;42.144;25.884;2023-03-01T05:23:50;8.00;;;5.00;;
47523;SDS011;33253;42.144;25.884;2023-03-01T05:26:16;7.97;;;5.18;;
47523;SDS011;33253;42.144;25.884;2023-03-01T05:28:44;7.38;;;5.15;;
47523;SDS011;33253;42.144;25.884;2023-03-01T05:31:09;9.25;;;5.28;;
47523;SDS011;33253;42.144;25.884;2023-03-01T05:33:39;8.65;;;5.90;;
47523;SDS011;33253;42.144;25.884;2023-03-01T05:38:31;7.13;;;5.20;;
47523;SDS011;33253;42.144;25.884;2023-03-01T05:40:56;7.70;;;5.07;;
47523;SDS011;33253;42.144;25.884;2023-03-01T05:43:22;13.32;;;5.80;;
47523;SDS011;33253;42.144;25.884;2023-03-01T05:45:47;8.23;;;5.88;;
47523;SDS011;33253;42.144;25.884;2023-03-01T05:48:13;11.63;;;6.22;;
47523;SDS011;33253;42.144;25.884;2023-03-01T05:50:40;10.13;;;5.80;;
47523;SDS011;33253;42.144;25.884;2023-03-01T05:53:10;8.52;;;6.13;;
47523;SDS011;33253;42.144;25.884;2023-03-01T05:55:44;7.95;;;5.28;;
47523;SDS011;33253;42.144;25.884;2023-03-01T05:58:15;9.90;;;5.63;;
47523;SDS011;33253;42.144;25.884;2023-03-01T06:00:43;9.20;;;6.07;;
47523;SDS011;33253;42.144;25.884;2023-03-01T06:03:10;8.57;;;5.75;;
47523;SDS011;33253;42.144;25.884;2023-03-01T06:05:37;9.23;;;6.28;;
47523;SDS011;33253;42.144;25.884;2023-03-01T06:08:04;9.57;;;5.75;;
47523;SDS011;33253;42.144;25.884;2023-03-01T06:10:30;10.98;;;7.28;;
47523;SDS011;33253;42.144;25.884;2023-03-01T06:12:55;9.40;;;5.70;;
47523;SDS011;33253;42.144;25.884;2023-03-01T06:15:21;13.35;;;6.78;;
47523;SDS011;33253;42.144;25.884;2023-03-01T06:17:47;10.02;;;6.28;;
47523;SDS011;33253;42.144;25.884;2023-03-01T06:20:14;9.35;;;6.40;;
47523;SDS011;33253;42.144;25.884;2023-03-01T06:22:41;11.02;;;6.43;;
47523;SDS011;33253;42.144;25.884;2023-03-01T06:25:08;9.27;;;6.47;;
47523;SDS011;33253;42.144;25.884;2023-03-01T06:27:34;9.15;;;6.28;;
47523;SDS011;33253;42.144;25.884;2023-03-01T06:30:00;12.02;;;5.90;;
47523;SDS011;33253;42.144;25.884;2023-03-01T06:32:26;10.82;;;7.80;;
47523;SDS011;33253;42.144;25.884;2023-03-01T06:34:51;11.98;;;7.05;;
47523;SDS011;33253;42.144;25.884;2023-03-01T06:37:17;9.57;;;6.80;;
47523;SDS011;33253;42.144;25.884;2023-03-01T06:39:42;16.20;;;8.75;;
47523;SDS011;33253;42.144;25.884;2023-03-01T06:42:08;12.52;;;7.30;;
47523;SDS011;33253;42.144;25.884;2023-03-01T06:44:37;13.93;;;8.48;;
47523;SDS011;33253;42.144;25.884;2023-03-01T06:47:04;10.13;;;6.53;;
47523;SDS011;33253;42.144;25.884;2023-03-01T06:49:30;9.65;;;6.50;;
47523;SDS011;33253;42.144;25.884;2023-03-01T06:51:56;9.98;;;6.93;;
47523;SDS011;33253;42.144;25.884;2023-03-01T06:54:22;9.55;;;6.80;;
47523;SDS011;33253;42.144;25.884;2023-03-01T06:56:49;11.35;;;6.78;;
47523;SDS011;33253;42.144;25.884;2023-03-01T06:59:15;14.18;;;7.90;;
47523;SDS011;33253;42.144;25.884;2023-03-01T07:01:41;9.35;;;6.32;;
47523;SDS011;33253;42.144;25.884;2023-03-01T07:04:07;8.20;;;5.97;;
47523;SDS011;33253;42.144;25.884;2023-03-01T07:06:33;11.55;;;7.00;;
47523;SDS011;33253;42.144;25.884;2023-03-01T07:08:58;15.60;;;6.10;;
47523;SDS011;33253;42.144;25.884;2023-03-01T07:11:24;13.20;;;6.35;;
47523;SDS011;33253;42.144;25.884;2023-03-01T07:13:49;19.38;;;9.40;;
47523;SDS011;33253;42.144;25.884;2023-03-01T07:16:15;25.42;;;11.77;;
47523;SDS011;33253;42.144;25.884;2023-03-01T07:18:40;45.40;;;14.95;;
47523;SDS011;33253;42.144;25.884;2023-03-01T07:21:07;12.75;;;7.25;;
47523;SDS011;33253;42.144;25.884;2023-03-01T07:23:34;49.58;;;17.33;;
47523;SDS011;33253;42.144;25.884;2023-03-01T07:26:00;24.30;;;12.20;;
47523;SDS011;33253;42.144;25.884;2023-03-01T07:28:26;13.70;;;5.72;;
47523;SDS011;33253;42.144;25.884;2023-03-01T07:30:52;35.67;;;12.73;;
47523;SDS011;33253;42.144;25.884;2023-03-01T07:33:18;36.78;;;13.30;;
47523;SDS011;33253;42.144;25.884;2023-03-01T07:35:43;14.35;;;6.82;;
47523;SDS011;33253;42.144;25.884;2023-03-01T07:38:08;30.00;;;10.10;;
47523;SDS011;33253;42.144;25.884;2023-03-01T07:40:34;8.15;;;4.57;;
47523;SDS011;33253;42.144;25.884;2023-03-01T07:43:00;19.60;;;7.15;;
47523;SDS011;33253;42.144;25.884;2023-03-01T07:45:26;42.65;;;15.70;;
47523;SDS011;33253;42.144;25.884;2023-03-01T07:47:52;17.25;;;7.68;;
47523;SDS011;33253;42.144;25.884;2023-03-01T07:50:19;13.07;;;7.03;;
47523;SDS011;33253;42.144;25.884;2023-03-01T07:52:45;16.95;;;7.82;;
47523;SDS011;33253;42.144;25.884;2023-03-01T07:55:14;33.97;;;13.52;;
47523;SDS011;33253;42.144;25.884;2023-03-01T07:57:41;31.85;;;11.80;;
47523;SDS011;33253;42.144;25.884;2023-03-01T08:00:07;26.75;;;11.00;;
47523;SDS011;33253;42.144;25.884;2023-03-01T08:02:35;26.60;;;8.10;;
47523;SDS011;33253;42.144;25.884;2023-03-01T08:05:00;42.60;;;13.60;;
47523;SDS011;33253;42.144;25.884;2023-03-01T08:07:26;24.08;;;9.40;;
47523;SDS011;33253;42.144;25.884;2023-03-01T08:09:51;44.30;;;12.52;;
47523;SDS011;33253;42.144;25.884;2023-03-01T08:12:17;37.42;;;12.43;;
47523;SDS011;33253;42.144;25.884;2023-03-01T08:14:42;20.95;;;7.72;;
47523;SDS011;33253;42.144;25.884;2023-03-01T08:17:08;33.40;;;12.55;;
47523;SDS011;33253;42.144;25.884;2023-03-01T08:19:34;37.38;;;13.45;;
47523;SDS011;33253;42.144;25.884;2023-03-01T08:22:00;47.05;;;16.85;;
47523;SDS011;33253;42.144;25.884;2023-03-01T08:24:27;40.13;;;12.75;;
47523;SDS011;33253;42.144;25.884;2023-03-01T08:26:53;48.08;;;14.73;;
47523;SDS011;33253;42.144;25.884;2023-03-01T08:29:19;57.88;;;15.55;;
47523;SDS011;33253;42.144;25.884;2023-03-01T08:31:45;54.20;;;18.52;;
47523;SDS011;33253;42.144;25.884;2023-03-01T08:34:12;44.63;;;13.23;;
47523;SDS011;33253;42.144;25.884;2023-03-01T08:36:40;40.22;;;15.13;;
47523;SDS011;33253;42.144;25.884;2023-03-01T08:39:09;37.47;;;14.10;;
47523;SDS011;33253;42.144;25.884;2023-03-01T08:41:37;43.38;;;14.45;;
47523;SDS011;33253;42.144;25.884;2023-03-01T08:44:03;39.97;;;12.55;;
47523;SDS011;33253;42.144;25.884;2023-03-01T08:46:34;37.65;;;12.13;;
47523;SDS011;33253;42.144;25.884;2023-03-01T08:49:06;45.85;;;15.15;;
47523;SDS011;33253;42.144;25.884;2023-03-01T08:51:37;46.30;;;15.85;;
47523;SDS011;33253;42.144;25.884;2023-03-01T08:54:06;35.25;;;12.63;;
47523;SDS011;33253;42.144;25.884;2023-03-01T08:56:36;40.63;;;12.43;;
47523;SDS011;33253;42.144;25.884;2023-03-01T08:59:02;40.10;;;12.48;;
47523;SDS011;33253;42.144;25.884;2023-03-01T09:01:27;39.83;;;13.02;;
47523;SDS011;33253;42.144;25.884;2023-03-01T09:03:53;31.95;;;11.13;;
47523;SDS011;33253;42.144;25.884;2023-03-01T09:06:18;21.23;;;9.93;;
47523;SDS011;33253;42.144;25.884;2023-03-01T09:08:45;35.90;;;14.52;;
47523;SDS011;33253;42.144;25.884;2023-03-01T09:11:15;41.75;;;14.55;;
47523;SDS011;33253;42.144;25.884;2023-03-01T09:13:44;48.83;;;15.35;;
47523;SDS011;33253;42.144;25.884;2023-03-01T09:16:11;48.72;;;16.70;;
47523;SDS011;33253;42.144;25.884;2023-03-01T09:18:38;56.58;;;18.58;;
47523;SDS011;33253;42.144;25.884;2023-03-01T09:21:09;41.10;;;13.75;;
47523;SDS011;33253;42.144;25.884;2023-03-01T09:23:40;47.58;;;15.63;;
47523;SDS011;33253;42.144;25.884;2023-03-01T09:26:08;44.97;;;13.48;;
47523;SDS011;33253;42.144;25.884;2023-03-01T09:28:38;46.20;;;14.85;;
47523;SDS011;33253;42.144;25.884;2023-03-01T09:31:05;42.83;;;15.05;;
47523;SDS011;33253;42.144;25.884;2023-03-01T09:33:31;35.25;;;12.73;;
47523;SDS011;33253;42.144;25.884;2023-03-01T09:40:53;37.80;;;12.82;;
47523;SDS011;33253;42.144;25.884;2023-03-01T09:43:28;24.13;;;10.35;;
47523;SDS011;33253;42.144;25.884;2023-03-01T09:46:06;26.45;;;10.13;;
47523;SDS011;33253;42.144;25.884;2023-03-01T09:51:35;21.33;;;9.30;;
47523;SDS011;33253;42.144;25.884;2023-03-01T09:54:01;51.78;;;14.98;;
47523;SDS011;33253;42.144;25.884;2023-03-01T10:02:21;46.88;;;15.13;;
47523;SDS011;33253;42.144;25.884;2023-03-01T10:05:06;17.63;;;8.50;;
47523;SDS011;33253;42.144;25.884;2023-03-01T10:07:55;14.77;;;7.60;;
47523;SDS011;33253;42.144;25.884;2023-03-01T10:10:43;16.38;;;7.35;;
47523;SDS011;33253;42.144;25.884;2023-03-01T10:16:34;44.95;;;13.98;;
47523;SDS011;33253;42.144;25.884;2023-03-01T10:19:03;14.23;;;7.60;;
47523;SDS011;33253;42.144;25.884;2023-03-01T10:21:31;11.88;;;6.28;;
47523;SDS011;33253;42.144;25.884;2023-03-01T10:24:12;14.77;;;6.45;;
47523;SDS011;33253;42.144;25.884;2023-03-01T10:29:08;15.25;;;7.05;;
47523;SDS011;33253;42.144;25.884;2023-03-01T10:37:08;9.68;;;6.07;;
47523;SDS011;33253;42.144;25.884;2023-03-01T10:42:38;21.75;;;7.82;;
47523;SDS011;33253;42.144;25.884;2023-03-01T10:45:15;34.72;;;10.73;;
47523;SDS011;33253;42.144;25.884;2023-03-01T10:47:42;44.90;;;13.55;;
47523;SDS011;33253;42.144;25.884;2023-03-01T10:50:18;15.70;;;7.43;;
47523;SDS011;33253;42.144;25.884;2023-03-01T10:52:56;34.30;;;9.98;;
47523;SDS011;33253;42.144;25.884;2023-03-01T11:00:46;22.52;;;9.85;;
47523;SDS011;33253;42.144;25.884;2023-03-01T11:03:20;12.57;;;7.45;;
47523;SDS011;33253;42.144;25.884;2023-03-01T11:06:05;24.00;;;9.93;;
47523;SDS011;33253;42.144;25.884;2023-03-01T11:08:46;13.32;;;6.93;;
47523;SDS011;33253;42.144;25.884;2023-03-01T11:11:15;22.92;;;10.40;;
47523;SDS011;33253;42.144;25.884;2023-03-01T11:14:18;39.03;;;13.63;;
47523;SDS011;33253;42.144;25.884;2023-03-01T11:17:27;18.95;;;8.13;;
47523;SDS011;33253;42.144;25.884;2023-03-01T11:22:46;27.33;;;9.65;;
47523;SDS011;33253;42.144;25.884;2023-03-01T11:25:16;27.20;;;11.48;;
47523;SDS011;33253;42.144;25.884;2023-03-01T11:27:44;31.92;;;10.65;;
47523;SDS011;33253;42.144;25.884;2023-03-01T11:32:46;21.95;;;9.38;;
47523;SDS011;33253;42.144;25.884;2023-03-01T11:35:23;13.05;;;7.25;;
47523;SDS011;33253;42.144;25.884;2023-03-01T11:40:50;13.23;;;7.38;;
47523;SDS011;33253;42.144;25.884;2023-03-01T11:49:06;11.68;;;7.20;;
47523;SDS011;33253;42.144;25.884;2023-03-01T12:20:21;29.17;;;9.73;;
47523;SDS011;33253;42.144;25.884;2023-03-01T12:23:20;11.48;;;7.47;;
47523;SDS011;33253;42.144;25.884;2023-03-01T12:31:50;30.80;;;10.30;;
47523;SDS011;33253;42.144;25.884;2023-03-01T12:50:42;14.57;;;7.15;;
47523;SDS011;33253;42.144;25.884;2023-03-01T12:55:55;27.95;;;11.63;;
47523;SDS011;33253;42.144;25.884;2023-03-01T13:07:04;16.83;;;7.95;;
47523;SDS011;33253;42.144;25.884;2023-03-01T13:09:40;12.15;;;7.25;;
47523;SDS011;33253;42.144;25.884;2023-03-01T13:17:51;21.88;;;9.70;;
47523;SDS011;33253;42.144;25.884;2023-03-01T13:20:24;28.27;;;10.75;;
47523;SDS011;33253;42.144;25.884;2023-03-01T13:23:00;25.52;;;10.27;;
47523;SDS011;33253;42.144;25.884;2023-03-01T13:25:31;20.88;;;10.10;;
47523;SDS011;33253;42.144;25.884;2023-03-01T13:31:02;17.45;;;9.52;;
47523;SDS011;33253;42.144;25.884;2023-03-01T13:35:55;17.55;;;9.60;;
47523;SDS011;33253;42.144;25.884;2023-03-01T13:38:37;16.13;;;9.23;;
47523;SDS011;33253;42.144;25.884;2023-03-01T13:43:46;22.33;;;9.23;;
47523;SDS011;33253;42.144;25.884;2023-03-01T13:46:21;14.65;;;8.55;;
47523;SDS011;33253;42.144;25.884;2023-03-01T13:48:50;18.58;;;8.35;;
47523;SDS011;33253;42.144;25.884;2023-03-01T13:51:20;14.80;;;9.30;;
47523;SDS011;33253;42.144;25.884;2023-03-01T13:53:50;17.08;;;8.90;;
47523;SDS011;33253;42.144;25.884;2023-03-01T13:56:24;13.80;;;9.77;;
47523;SDS011;33253;42.144;25.884;2023-03-01T13:59:01;16.67;;;10.18;;
47523;SDS011;33253;42.144;25.884;2023-03-01T14:01:55;16.55;;;10.50;;
47523;SDS011;33253;42.144;25.884;2023-03-01T14:04:25;19.90;;;12.05;;
47523;SDS011;33253;42.144;25.884;2023-03-01T14:07:08;18.58;;;11.63;;
47523;SDS011;33253;42.144;25.884;2023-03-01T14:09:45;15.70;;;9.70;;
47523;SDS011;33253;42.144;25.884;2023-03-01T14:20:30;21.92;;;12.85;;
47523;SDS011;33253;42.144;25.884;2023-03-01T14:23:01;28.55;;;15.80;;
47523;SDS011;33253;42.144;25.884;2023-03-01T14:25:35;24.00;;;13.85;;
47523;SDS011;33253;42.144;25.884;2023-03-01T14:28:16;20.30;;;12.38;;
47523;SDS011;33253;42.144;25.884;2023-03-01T14:30:45;37.33;;;15.38;;
47523;SDS011;33253;42.144;25.884;2023-03-01T14:33:35;26.67;;;13.48;;
47523;SDS011;33253;42.144;25.884;2023-03-01T14:36:05;17.35;;;11.93;;
47523;SDS011;33253;42.144;25.884;2023-03-01T14:38:36;23.77;;;12.63;;
47523;SDS011;33253;42.144;25.884;2023-03-01T14:41:06;22.90;;;12.27;;
47523;SDS011;33253;42.144;25.884;2023-03-01T14:43:51;21.20;;;13.27;;
47523;SDS011;33253;42.144;25.884;2023-03-01T14:46:25;21.08;;;13.27;;
47523;SDS011;33253;42.144;25.884;2023-03-01T14:49:02;20.80;;;13.43;;
47523;SDS011;33253;42.144;25.884;2023-03-01T14:51:36;27.05;;;14.50;;
47523;SDS011;33253;42.144;25.884;2023-03-01T14:54:03;29.98;;;14.43;;
47523;SDS011;33253;42.144;25.884;2023-03-01T14:56:51;30.27;;;14.95;;
47523;SDS011;33253;42.144;25.884;2023-03-01T14:59:22;30.63;;;14.65;;
47523;SDS011;33253;42.144;25.884;2023-03-01T15:01:50;27.58;;;14.82;;
47523;SDS011;33253;42.144;25.884;2023-03-01T15:04:18;28.08;;;14.70;;
47523;SDS011;33253;42.144;25.884;2023-03-01T15:06:45;30.90;;;14.77;;
47523;SDS011;33253;42.144;25.884;2023-03-01T15:09:12;31.15;;;14.98;;
47523;SDS011;33253;42.144;25.884;2023-03-01T15:11:41;29.95;;;15.48;;
47523;SDS011;33253;42.144;25.884;2023-03-01T15:16:53;25.45;;;16.27;;
47523;SDS011;33253;42.144;25.884;2023-03-01T15:19:19;25.45;;;16.63;;
47523;SDS011;33253;42.144;25.884;2023-03-01T15:21:53;44.22;;;29.90;;
47523;SDS011;33253;42.144;25.884;2023-03-01T15:24:22;33.20;;;19.65;;
47523;SDS011;33253;42.144;25.884;2023-03-01T15:29:23;56.97;;;38.40;;
47523;SDS011;33253;42.144;25.884;2023-03-01T15:31:56;49.85;;;27.45;;
47523;SDS011;33253;42.144;25.884;2023-03-01T15:34:30;25.70;;;17.15;;
47523;SDS011;33253;42.144;25.884;2023-03-01T15:36:57;32.35;;;18.35;;
47523;SDS011;33253;42.144;25.884;2023-03-01T15:39:41;30.52;;;17.77;;
47523;SDS011;33253;42.144;25.884;2023-03-01T15:45:07;23.90;;;14.13;;
47523;SDS011;33253;42.144;25.884;2023-03-01T15:47:38;23.30;;;14.18;;
47523;SDS011;33253;42.144;25.884;2023-03-01T15:50:28;24.00;;;13.18;;
47523;SDS011;33253;42.144;25.884;2023-03-01T15:52:58;19.90;;;14.43;;
47523;SDS011;33253;42.144;25.884;2023-03-01T15:55:28;21.45;;;15.07;;
47523;SDS011;33253;42.144;25.884;2023-03-01T16:00:50;25.13;;;13.52;;
47523;SDS011;33253;42.144;25.884;2023-03-01T16:03:20;23.48;;;15.60;;
47523;SDS011;33253;42.144;25.884;2023-03-01T16:05:47;25.55;;;13.85;;
47523;SDS011;33253;42.144;25.884;2023-03-01T16:08:13;28.65;;;15.63;;
47523;SDS011;33253;42.144;25.884;2023-03-01T16:10:40;37.53;;;21.38;;
47523;SDS011;33253;42.144;25.884;2023-03-01T16:13:08;31.05;;;16.35;;
47523;SDS011;33253;42.144;25.884;2023-03-01T16:15:34;40.30;;;20.95;;
47523;SDS011;33253;42.144;25.884;2023-03-01T16:18:00;25.50;;;16.85;;
47523;SDS011;33253;42.144;25.884;2023-03-01T16:20:26;24.10;;;14.60;;
47523;SDS011;33253;42.144;25.884;2023-03-01T16:22:53;31.13;;;16.85;;
47523;SDS011;33253;42.144;25.884;2023-03-01T16:25:19;35.90;;;16.67;;
47523;SDS011;33253;42.144;25.884;2023-03-01T16:27:46;34.20;;;16.77;;
47523;SDS011;33253;42.144;25.884;2023-03-01T16:30:17;26.02;;;14.15;;
47523;SDS011;33253;42.144;25.884;2023-03-01T16:32:45;25.52;;;13.38;;
47523;SDS011;33253;42.144;25.884;2023-03-01T16:35:14;19.27;;;12.25;;
47523;SDS011;33253;42.144;25.884;2023-03-01T16:37:41;24.10;;;12.18;;
47523;SDS011;33253;42.144;25.884;2023-03-01T16:40:15;22.23;;;12.95;;
47523;SDS011;33253;42.144;25.884;2023-03-01T16:42:43;26.02;;;12.35;;
47523;SDS011;33253;42.144;25.884;2023-03-01T16:45:08;23.38;;;11.38;;
47523;SDS011;33253;42.144;25.884;2023-03-01T16:47:34;22.30;;;9.15;;
47523;SDS011;33253;42.144;25.884;2023-03-01T16:50:00;25.25;;;10.30;;
47523;SDS011;33253;42.144;25.884;2023-03-01T16:52:26;19.48;;;9.50;;
47523;SDS011;33253;42.144;25.884;2023-03-01T16:54:51;10.02;;;7.47;;
47523;SDS011;33253;42.144;25.884;2023-03-01T16:57:17;15.55;;;8.57;;
47523;SDS011;33253;42.144;25.884;2023-03-01T16:59:44;13.35;;;7.95;;
47523;SDS011;33253;42.144;25.884;2023-03-01T17:02:10;13.32;;;8.18;;
47523;SDS011;33253;42.144;25.884;2023-03-01T17:04:37;16.75;;;8.55;;